WJA801 CYHZ-CYYZ
Flight info
| Callsign | WJA801 |
|---|---|
| Flight time | 2h 0m |
| Altitude | 38000 |
| Route | KELNO Q806 TUKIR RAGID6 |
| Aircraft | B738/M-SDE2E3FGHIRWXY/LB1 |
Departure
| Time | 2026-05-04 13:40 |
|---|---|
| Airport | Halifax / Stanfield International Airport (CYHZ) |
Arrival
| Time | 2026-05-04 15:41 |
|---|---|
| Airport | Toronto Pearson International Airport (CYYZ) |
| Time | Latitude | Longitude | Altitude | Speed | Heading |
|---|---|---|---|---|---|
| 2026-05-04 13:23 | 44.88677 | -63.51392 | 446 ft | 0 kts | 260° |
| 2026-05-04 13:32 | 44.88678 | -63.51389 | 446 ft | 2 kts | 263° |
| 2026-05-04 13:32 | 44.88679 | -63.51368 | 447 ft | 2 kts | 259° |
| 2026-05-04 13:32 | 44.88682 | -63.51347 | 448 ft | 2 kts | 260° |
| 2026-05-04 13:33 | 44.88685 | -63.51327 | 448 ft | 2 kts | 260° |
| 2026-05-04 13:33 | 44.88687 | -63.51306 | 448 ft | 2 kts | 259° |
| 2026-05-04 13:33 | 44.88686 | -63.51284 | 448 ft | 2 kts | 292° |
| 2026-05-04 13:33 | 44.88678 | -63.51267 | 448 ft | 2 kts | 319° |
| 2026-05-04 13:34 | 44.88666 | -63.51257 | 448 ft | 1 kts | 345° |
| 2026-05-04 13:34 | 44.88660 | -63.51255 | 448 ft | 1 kts | 352° |
| 2026-05-04 13:34 | 44.88657 | -63.51255 | 448 ft | 0 kts | 351° |
| 2026-05-04 13:36 | 44.88671 | -63.51248 | 448 ft | 8 kts | 31° |
| 2026-05-04 13:36 | 44.88690 | -63.51184 | 448 ft | 6 kts | 78° |
| 2026-05-04 13:36 | 44.88699 | -63.51125 | 448 ft | 6 kts | 77° |
| 2026-05-04 13:37 | 44.88709 | -63.51065 | 448 ft | 6 kts | 77° |
| 2026-05-04 13:37 | 44.88719 | -63.51004 | 448 ft | 6 kts | 77° |
| 2026-05-04 13:37 | 44.88730 | -63.50944 | 449 ft | 5 kts | 71° |
| 2026-05-04 13:37 | 44.88741 | -63.50917 | 450 ft | 4 kts | 50° |
| 2026-05-04 13:38 | 44.88847 | -63.50805 | 447 ft | 25 kts | 34° |
| 2026-05-04 13:38 | 44.88972 | -63.50680 | 442 ft | 18 kts | 42° |
| 2026-05-04 13:38 | 44.88995 | -63.50597 | 441 ft | 0 kts | 84° |
| 2026-05-04 13:39 | 44.88994 | -63.50572 | 441 ft | 8 kts | 101° |
| 2026-05-04 13:39 | 44.88936 | -63.50459 | 441 ft | 14 kts | 143° |
| 2026-05-04 13:39 | 44.88858 | -63.50467 | 444 ft | 9 kts | 205° |
| 2026-05-04 13:40 | 44.88756 | -63.50560 | 449 ft | 51 kts | 216° |
| 2026-05-04 13:40 | 44.88179 | -63.51143 | 453 ft | 149 kts | 215° |
| 2026-05-04 13:40 | 44.87274 | -63.52074 | 1186 ft | 175 kts | 217° |
| 2026-05-04 13:40 | 44.86266 | -63.53021 | 2309 ft | 185 kts | 200° |
| 2026-05-04 13:41 | 44.84993 | -63.52993 | 3157 ft | 199 kts | 154° |
| 2026-05-04 13:41 | 44.84024 | -63.51570 | 4024 ft | 215 kts | 110° |
| 2026-05-04 13:41 | 44.83992 | -63.49462 | 4881 ft | 231 kts | 70° |
| 2026-05-04 13:42 | 44.86653 | -63.47048 | 6566 ft | 265 kts | 356° |
| 2026-05-04 13:42 | 44.88403 | -63.47944 | 7502 ft | 278 kts | 321° |
| 2026-05-04 13:42 | 44.89542 | -63.50103 | 8621 ft | 282 kts | 291° |
| 2026-05-04 13:42 | 44.89936 | -63.52763 | 9704 ft | 287 kts | 278° |
| 2026-05-04 13:43 | 44.90457 | -63.55486 | 10689 ft | 296 kts | 291° |
| 2026-05-04 13:43 | 44.91366 | -63.58187 | 11432 ft | 313 kts | 297° |
| 2026-05-04 13:43 | 44.92424 | -63.60899 | 12242 ft | 326 kts | 299° |
| 2026-05-04 13:43 | 44.93519 | -63.63708 | 13279 ft | 331 kts | 298° |
| 2026-05-04 13:44 | 44.94603 | -63.66580 | 14287 ft | 336 kts | 297° |
| 2026-05-04 13:44 | 44.95666 | -63.69479 | 15257 ft | 341 kts | 297° |
| 2026-05-04 13:44 | 44.96748 | -63.72483 | 16216 ft | 346 kts | 296° |
| 2026-05-04 13:44 | 44.97832 | -63.75517 | 17143 ft | 351 kts | 296° |
| 2026-05-04 13:45 | 44.98924 | -63.78582 | 18039 ft | 355 kts | 296° |
| 2026-05-04 13:45 | 45.00037 | -63.81711 | 18910 ft | 360 kts | 296° |
| 2026-05-04 13:45 | 45.01151 | -63.84843 | 19741 ft | 365 kts | 296° |
| 2026-05-04 13:45 | 45.02299 | -63.88064 | 20559 ft | 369 kts | 296° |
| 2026-05-04 13:46 | 45.03459 | -63.91322 | 21349 ft | 374 kts | 296° |
| 2026-05-04 13:46 | 45.04626 | -63.94603 | 22109 ft | 378 kts | 296° |
| 2026-05-04 13:46 | 45.05800 | -63.97908 | 22838 ft | 383 kts | 296° |
| 2026-05-04 13:46 | 45.06993 | -64.01269 | 23549 ft | 387 kts | 296° |
| 2026-05-04 13:47 | 45.08199 | -64.04670 | 24237 ft | 391 kts | 296° |
| 2026-05-04 13:47 | 45.09424 | -64.08134 | 24908 ft | 395 kts | 296° |
| 2026-05-04 13:47 | 45.10654 | -64.11614 | 25559 ft | 399 kts | 296° |
| 2026-05-04 13:47 | 45.11841 | -64.15161 | 26179 ft | 403 kts | 293° |
| 2026-05-04 13:48 | 45.12794 | -64.18900 | 26788 ft | 407 kts | 287° |
| 2026-05-04 13:48 | 45.13504 | -64.22777 | 27371 ft | 411 kts | 282° |
| 2026-05-04 13:48 | 45.14045 | -64.26695 | 27937 ft | 414 kts | 280° |
| 2026-05-04 13:48 | 45.14519 | -64.30759 | 28497 ft | 418 kts | 279° |
| 2026-05-04 13:49 | 45.14963 | -64.34823 | 29037 ft | 421 kts | 279° |
| 2026-05-04 13:49 | 45.15398 | -64.38918 | 29562 ft | 425 kts | 278° |
| 2026-05-04 13:49 | 45.15836 | -64.43070 | 30078 ft | 428 kts | 278° |
| 2026-05-04 13:49 | 45.16273 | -64.47212 | 30821 ft | 425 kts | 279° |
| 2026-05-04 13:50 | 45.16706 | -64.51302 | 31497 ft | 423 kts | 279° |
| 2026-05-04 13:50 | 45.17140 | -64.55396 | 32130 ft | 422 kts | 279° |
| 2026-05-04 13:50 | 45.17573 | -64.59476 | 32739 ft | 421 kts | 279° |
| 2026-05-04 13:50 | 45.18004 | -64.63544 | 33341 ft | 419 kts | 279° |
| 2026-05-04 13:51 | 45.18434 | -64.67604 | 33916 ft | 418 kts | 278° |
| 2026-05-04 13:51 | 45.18871 | -64.71736 | 34483 ft | 417 kts | 278° |
| 2026-05-04 13:51 | 45.19308 | -64.75880 | 35031 ft | 416 kts | 278° |
| 2026-05-04 13:51 | 45.19735 | -64.79942 | 35551 ft | 415 kts | 278° |
| 2026-05-04 13:52 | 45.20579 | -64.88013 | 36502 ft | 414 kts | 278° |
| 2026-05-04 13:52 | 45.20993 | -64.91998 | 36922 ft | 414 kts | 278° |
| 2026-05-04 13:52 | 45.21413 | -64.96045 | 37334 ft | 414 kts | 278° |
| 2026-05-04 13:53 | 45.21827 | -65.00050 | 37726 ft | 414 kts | 278° |
| 2026-05-04 13:53 | 45.22244 | -65.04101 | 37978 ft | 416 kts | 278° |
| 2026-05-04 13:53 | 45.22659 | -65.08147 | 37997 ft | 418 kts | 278° |
| 2026-05-04 13:54 | 45.23888 | -65.20213 | 38001 ft | 413 kts | 278° |
| 2026-05-04 13:55 | 45.25106 | -65.32304 | 38001 ft | 414 kts | 278° |
| 2026-05-04 13:55 | 45.26313 | -65.44408 | 38001 ft | 413 kts | 278° |
| 2026-05-04 13:56 | 45.27108 | -65.52464 | 38001 ft | 413 kts | 278° |
| 2026-05-04 13:57 | 45.28289 | -65.64530 | 38001 ft | 413 kts | 278° |
| 2026-05-04 13:58 | 45.29842 | -65.80614 | 38001 ft | 413 kts | 277° |
| 2026-05-04 13:58 | 45.30993 | -65.92693 | 38001 ft | 413 kts | 277° |
| 2026-05-04 13:59 | 45.31755 | -66.00766 | 38001 ft | 413 kts | 277° |
| 2026-05-04 14:00 | 45.32887 | -66.12869 | 38001 ft | 413 kts | 277° |
| 2026-05-04 14:00 | 45.34003 | -66.24957 | 38001 ft | 413 kts | 277° |
| 2026-05-04 14:01 | 45.34742 | -66.33038 | 38001 ft | 413 kts | 277° |
| 2026-05-04 14:02 | 45.35835 | -66.45106 | 38001 ft | 413 kts | 277° |
| 2026-05-04 14:02 | 45.36563 | -66.53226 | 38001 ft | 413 kts | 277° |
| 2026-05-04 14:03 | 45.37280 | -66.61291 | 38001 ft | 413 kts | 277° |
| 2026-05-04 14:03 | 45.38031 | -66.69364 | 38001 ft | 413 kts | 278° |
| 2026-05-04 14:04 | 45.39475 | -66.81459 | 38001 ft | 413 kts | 279° |
| 2026-05-04 14:04 | 45.40458 | -66.89485 | 38001 ft | 413 kts | 279° |
| 2026-05-04 14:05 | 45.41893 | -67.01556 | 38001 ft | 413 kts | 279° |
| 2026-05-04 14:06 | 45.42827 | -67.09575 | 38001 ft | 412 kts | 279° |
| 2026-05-04 14:06 | 45.43751 | -67.17589 | 38001 ft | 412 kts | 279° |
| 2026-05-04 14:07 | 45.44675 | -67.25661 | 38001 ft | 412 kts | 279° |
| 2026-05-04 14:07 | 45.45593 | -67.33730 | 38001 ft | 412 kts | 279° |
| 2026-05-04 14:08 | 45.46502 | -67.41780 | 38001 ft | 412 kts | 279° |
| 2026-05-04 14:08 | 45.47404 | -67.49819 | 38001 ft | 412 kts | 279° |
| 2026-05-04 14:09 | 45.48762 | -67.61899 | 38001 ft | 412 kts | 279° |
| 2026-05-04 14:10 | 45.50142 | -67.74032 | 38001 ft | 412 kts | 279° |
| 2026-05-04 14:10 | 45.51056 | -67.82075 | 38000 ft | 412 kts | 279° |
| 2026-05-04 14:11 | 45.51965 | -67.90138 | 38000 ft | 412 kts | 279° |
| 2026-05-04 14:11 | 45.53319 | -68.02269 | 38000 ft | 412 kts | 279° |
| 2026-05-04 14:12 | 45.54211 | -68.10324 | 38000 ft | 412 kts | 279° |
| 2026-05-04 14:13 | 45.55538 | -68.22428 | 38001 ft | 412 kts | 279° |
| 2026-05-04 14:13 | 45.56414 | -68.30477 | 38000 ft | 412 kts | 279° |
| 2026-05-04 14:14 | 45.57285 | -68.38547 | 38000 ft | 412 kts | 279° |
| 2026-05-04 14:14 | 45.58581 | -68.50649 | 38001 ft | 412 kts | 279° |
| 2026-05-04 14:15 | 45.59571 | -68.66953 | 38000 ft | 412 kts | 273° |
| 2026-05-04 14:16 | 45.60081 | -68.79163 | 38001 ft | 412 kts | 273° |
| 2026-05-04 14:17 | 45.60641 | -68.91415 | 38001 ft | 412 kts | 274° |
| 2026-05-04 14:18 | 45.61208 | -69.03604 | 38000 ft | 412 kts | 274° |
| 2026-05-04 14:19 | 45.61950 | -69.19870 | 38000 ft | 412 kts | 274° |
| 2026-05-04 14:19 | 45.62311 | -69.27975 | 38000 ft | 411 kts | 274° |
| 2026-05-04 14:20 | 45.62668 | -69.36116 | 38000 ft | 411 kts | 274° |
| 2026-05-04 14:20 | 45.63020 | -69.44255 | 38000 ft | 411 kts | 274° |
| 2026-05-04 14:21 | 45.63535 | -69.56449 | 38000 ft | 411 kts | 274° |
| 2026-05-04 14:21 | 45.63871 | -69.64584 | 38000 ft | 411 kts | 274° |
| 2026-05-04 14:22 | 45.64204 | -69.72769 | 38000 ft | 411 kts | 273° |
| 2026-05-04 14:22 | 45.64528 | -69.80883 | 38000 ft | 411 kts | 273° |
| 2026-05-04 14:23 | 45.65006 | -69.93124 | 38000 ft | 411 kts | 273° |
| 2026-05-04 14:24 | 45.65319 | -70.01317 | 38000 ft | 411 kts | 273° |
| 2026-05-04 14:24 | 45.65622 | -70.09421 | 38000 ft | 411 kts | 273° |
| 2026-05-04 14:25 | 45.65922 | -70.17587 | 38000 ft | 411 kts | 273° |
| 2026-05-04 14:25 | 45.66359 | -70.29800 | 38000 ft | 411 kts | 273° |
| 2026-05-04 14:26 | 45.66644 | -70.37949 | 38000 ft | 411 kts | 273° |
| 2026-05-04 14:26 | 45.66924 | -70.46128 | 38000 ft | 411 kts | 273° |
| 2026-05-04 14:27 | 45.67197 | -70.54269 | 38000 ft | 411 kts | 273° |
| 2026-05-04 14:27 | 45.67464 | -70.62435 | 38000 ft | 411 kts | 273° |
| 2026-05-04 14:28 | 45.67727 | -70.70632 | 38000 ft | 411 kts | 272° |
| 2026-05-04 14:28 | 45.67979 | -70.78808 | 38000 ft | 411 kts | 271° |
| 2026-05-04 14:29 | 45.67231 | -70.95045 | 38000 ft | 411 kts | 264° |
| 2026-05-04 14:30 | 45.66633 | -71.03144 | 38000 ft | 411 kts | 264° |
| 2026-05-04 14:31 | 45.65785 | -71.15301 | 38000 ft | 411 kts | 264° |
| 2026-05-04 14:32 | 45.64690 | -71.31556 | 38000 ft | 411 kts | 265° |
| 2026-05-04 14:32 | 45.64142 | -71.39651 | 38000 ft | 411 kts | 265° |
| 2026-05-04 14:33 | 45.63584 | -71.47793 | 38000 ft | 410 kts | 265° |
| 2026-05-04 14:33 | 45.63026 | -71.55862 | 38000 ft | 410 kts | 265° |
| 2026-05-04 14:34 | 45.62461 | -71.63944 | 38000 ft | 410 kts | 265° |
| 2026-05-04 14:34 | 45.61888 | -71.72043 | 38000 ft | 410 kts | 264° |
| 2026-05-04 14:35 | 45.61311 | -71.80144 | 38000 ft | 410 kts | 264° |
| 2026-05-04 14:35 | 45.60727 | -71.88235 | 38000 ft | 410 kts | 264° |
| 2026-05-04 14:36 | 45.60137 | -71.96339 | 38001 ft | 410 kts | 264° |
| 2026-05-04 14:36 | 45.59544 | -72.04409 | 38001 ft | 410 kts | 264° |
| 2026-05-04 14:37 | 45.58945 | -72.12476 | 38001 ft | 410 kts | 264° |
| 2026-05-04 14:37 | 45.58340 | -72.20534 | 38001 ft | 410 kts | 264° |
| 2026-05-04 14:38 | 45.57728 | -72.28622 | 38001 ft | 410 kts | 264° |
| 2026-05-04 14:38 | 45.57158 | -72.36692 | 38001 ft | 410 kts | 266° |
| 2026-05-04 14:39 | 45.56953 | -72.44775 | 38001 ft | 410 kts | 269° |
| 2026-05-04 14:39 | 45.56859 | -72.52921 | 38001 ft | 410 kts | 269° |
| 2026-05-04 14:40 | 45.56669 | -72.65108 | 38001 ft | 410 kts | 268° |
| 2026-05-04 14:40 | 45.56507 | -72.73193 | 38001 ft | 410 kts | 268° |
| 2026-05-04 14:41 | 45.56327 | -72.81333 | 38001 ft | 410 kts | 268° |
| 2026-05-04 14:42 | 45.55940 | -72.97603 | 38001 ft | 410 kts | 268° |
| 2026-05-04 14:42 | 45.55737 | -73.05721 | 38001 ft | 410 kts | 268° |
| 2026-05-04 14:43 | 45.55529 | -73.13838 | 38001 ft | 410 kts | 268° |
| 2026-05-04 14:43 | 45.55314 | -73.21948 | 38001 ft | 409 kts | 268° |
| 2026-05-04 14:44 | 45.55096 | -73.30012 | 38001 ft | 410 kts | 268° |
| 2026-05-04 14:44 | 45.54870 | -73.38139 | 38001 ft | 410 kts | 268° |
| 2026-05-04 14:45 | 45.54639 | -73.46191 | 38001 ft | 410 kts | 268° |
| 2026-05-04 14:45 | 45.54402 | -73.54304 | 38001 ft | 410 kts | 268° |
| 2026-05-04 14:46 | 45.54159 | -73.62435 | 38001 ft | 410 kts | 268° |
| 2026-05-04 14:46 | 45.53911 | -73.70504 | 38001 ft | 410 kts | 267° |
| 2026-05-04 14:47 | 45.53656 | -73.78637 | 38001 ft | 410 kts | 267° |
| 2026-05-04 14:47 | 45.53397 | -73.86716 | 38001 ft | 410 kts | 267° |
| 2026-05-04 14:48 | 45.53131 | -73.94833 | 38001 ft | 410 kts | 267° |
| 2026-05-04 14:48 | 45.52860 | -74.02904 | 38001 ft | 410 kts | 267° |
| 2026-05-04 14:49 | 45.52585 | -74.10960 | 38001 ft | 410 kts | 267° |
| 2026-05-04 14:49 | 45.52301 | -74.19099 | 38001 ft | 410 kts | 267° |
| 2026-05-04 14:50 | 45.52013 | -74.27164 | 38001 ft | 409 kts | 267° |
| 2026-05-04 14:50 | 45.51718 | -74.35293 | 38001 ft | 409 kts | 267° |
| 2026-05-04 14:51 | 45.51414 | -74.43427 | 38001 ft | 409 kts | 267° |
| 2026-05-04 14:51 | 45.50777 | -74.51420 | 38001 ft | 409 kts | 260° |
| 2026-05-04 14:52 | 45.49652 | -74.59408 | 38001 ft | 409 kts | 258° |
| 2026-05-04 14:52 | 45.48475 | -74.67253 | 38001 ft | 409 kts | 258° |
| 2026-05-04 14:53 | 45.47307 | -74.75213 | 38001 ft | 409 kts | 258° |
| 2026-05-04 14:53 | 45.46167 | -74.83137 | 38001 ft | 409 kts | 258° |
| 2026-05-04 14:54 | 45.45031 | -74.91093 | 38001 ft | 409 kts | 258° |
| 2026-05-04 14:54 | 45.43901 | -74.99003 | 38001 ft | 409 kts | 258° |
| 2026-05-04 14:55 | 45.42766 | -75.06911 | 38001 ft | 409 kts | 258° |
| 2026-05-04 14:55 | 45.41615 | -75.14852 | 38001 ft | 409 kts | 258° |
| 2026-05-04 14:56 | 45.40460 | -75.22768 | 38001 ft | 409 kts | 258° |
| 2026-05-04 14:56 | 45.39292 | -75.30729 | 38001 ft | 409 kts | 258° |
| 2026-05-04 14:57 | 45.38131 | -75.38607 | 38001 ft | 409 kts | 258° |
| 2026-05-04 14:57 | 45.36966 | -75.46479 | 38001 ft | 408 kts | 258° |
| 2026-05-04 14:58 | 45.35792 | -75.54366 | 38001 ft | 408 kts | 258° |
| 2026-05-04 14:58 | 45.34610 | -75.62266 | 38001 ft | 408 kts | 258° |
| 2026-05-04 14:59 | 45.33432 | -75.70107 | 38001 ft | 408 kts | 258° |
| 2026-05-04 15:00 | 45.31644 | -75.81928 | 38001 ft | 408 kts | 258° |
| 2026-05-04 15:00 | 45.30443 | -75.89821 | 38001 ft | 408 kts | 258° |
| 2026-05-04 15:01 | 45.28639 | -76.01601 | 38001 ft | 408 kts | 258° |
| 2026-05-04 15:01 | 45.27428 | -76.09463 | 38001 ft | 408 kts | 258° |
| 2026-05-04 15:02 | 45.26218 | -76.17271 | 38001 ft | 408 kts | 257° |
| 2026-05-04 15:02 | 45.24365 | -76.24856 | 38000 ft | 408 kts | 240° |
| 2026-05-04 15:03 | 45.20958 | -76.31316 | 38001 ft | 409 kts | 230° |
| 2026-05-04 15:03 | 45.17213 | -76.37355 | 38001 ft | 408 kts | 229° |
| 2026-05-04 15:04 | 45.13450 | -76.43366 | 38000 ft | 408 kts | 229° |
| 2026-05-04 15:04 | 45.09726 | -76.49382 | 38001 ft | 408 kts | 229° |
| 2026-05-04 15:05 | 45.05981 | -76.55476 | 38000 ft | 408 kts | 229° |
| 2026-05-04 15:05 | 45.02286 | -76.61499 | 38001 ft | 408 kts | 230° |
| 2026-05-04 15:06 | 44.98573 | -76.67549 | 38000 ft | 408 kts | 229° |
| 2026-05-04 15:07 | 44.92996 | -76.76615 | 38000 ft | 408 kts | 229° |
| 2026-05-04 15:07 | 44.89278 | -76.82642 | 38000 ft | 408 kts | 229° |
| 2026-05-04 15:08 | 44.85550 | -76.88673 | 38000 ft | 408 kts | 229° |
| 2026-05-04 15:08 | 44.81833 | -76.94801 | 38000 ft | 408 kts | 232° |
| 2026-05-04 15:09 | 44.78739 | -77.01352 | 37781 ft | 398 kts | 239° |
| 2026-05-04 15:09 | 44.77370 | -77.04697 | 37432 ft | 395 kts | 240° |
| 2026-05-04 15:09 | 44.76031 | -77.08070 | 36950 ft | 395 kts | 241° |
| 2026-05-04 15:10 | 44.73373 | -77.14802 | 35863 ft | 394 kts | 241° |
| 2026-05-04 15:10 | 44.72022 | -77.18192 | 35274 ft | 395 kts | 241° |
| 2026-05-04 15:10 | 44.69324 | -77.24900 | 34094 ft | 395 kts | 240° |
| 2026-05-04 15:11 | 44.67971 | -77.28240 | 33496 ft | 395 kts | 240° |
| 2026-05-04 15:11 | 44.66625 | -77.31553 | 32983 ft | 395 kts | 240° |
| 2026-05-04 15:11 | 44.65243 | -77.34946 | 32527 ft | 401 kts | 240° |
| 2026-05-04 15:11 | 44.63859 | -77.38335 | 32046 ft | 402 kts | 240° |
| 2026-05-04 15:12 | 44.62490 | -77.41684 | 31566 ft | 398 kts | 240° |
| 2026-05-04 15:12 | 44.61119 | -77.45033 | 31085 ft | 394 kts | 240° |
| 2026-05-04 15:12 | 44.59761 | -77.48344 | 30610 ft | 390 kts | 240° |
| 2026-05-04 15:12 | 44.58422 | -77.51608 | 30141 ft | 386 kts | 240° |
| 2026-05-04 15:13 | 44.57097 | -77.54833 | 29677 ft | 382 kts | 240° |
| 2026-05-04 15:13 | 44.55786 | -77.58019 | 29217 ft | 378 kts | 240° |
| 2026-05-04 15:13 | 44.54492 | -77.61163 | 28763 ft | 374 kts | 240° |
| 2026-05-04 15:13 | 44.53196 | -77.64307 | 28307 ft | 371 kts | 240° |
| 2026-05-04 15:14 | 44.51924 | -77.67388 | 27859 ft | 367 kts | 240° |
| 2026-05-04 15:14 | 44.50644 | -77.70487 | 27403 ft | 363 kts | 240° |
| 2026-05-04 15:14 | 44.49388 | -77.73521 | 26960 ft | 360 kts | 239° |
| 2026-05-04 15:14 | 44.48158 | -77.76486 | 26527 ft | 356 kts | 239° |
| 2026-05-04 15:15 | 44.46912 | -77.79489 | 26089 ft | 356 kts | 239° |
| 2026-05-04 15:15 | 44.45657 | -77.82510 | 25652 ft | 360 kts | 239° |
| 2026-05-04 15:15 | 44.44413 | -77.85501 | 25210 ft | 358 kts | 239° |
| 2026-05-04 15:16 | 44.41950 | -77.91414 | 24344 ft | 350 kts | 239° |
| 2026-05-04 15:16 | 44.40731 | -77.94338 | 23912 ft | 346 kts | 239° |
| 2026-05-04 15:16 | 44.38338 | -78.00066 | 23065 ft | 339 kts | 239° |
| 2026-05-04 15:17 | 44.37150 | -78.02904 | 22643 ft | 336 kts | 239° |
| 2026-05-04 15:17 | 44.34811 | -78.08488 | 21816 ft | 337 kts | 239° |
| 2026-05-04 15:17 | 44.33626 | -78.11307 | 21389 ft | 337 kts | 239° |
| 2026-05-04 15:18 | 44.32462 | -78.14076 | 20978 ft | 333 kts | 239° |
| 2026-05-04 15:18 | 44.31288 | -78.16863 | 20564 ft | 329 kts | 239° |
| 2026-05-04 15:18 | 44.30145 | -78.19576 | 20160 ft | 326 kts | 239° |
| 2026-05-04 15:19 | 44.27872 | -78.24961 | 19357 ft | 319 kts | 239° |
| 2026-05-04 15:19 | 44.26759 | -78.27597 | 18964 ft | 316 kts | 239° |
| 2026-05-04 15:19 | 44.24508 | -78.32918 | 18171 ft | 320 kts | 239° |
| 2026-05-04 15:20 | 44.23391 | -78.35557 | 17774 ft | 316 kts | 239° |
| 2026-05-04 15:20 | 44.22276 | -78.38185 | 17380 ft | 313 kts | 239° |
| 2026-05-04 15:20 | 44.21175 | -78.40781 | 16993 ft | 309 kts | 239° |
| 2026-05-04 15:20 | 44.20079 | -78.43359 | 16603 ft | 306 kts | 239° |
| 2026-05-04 15:21 | 44.19004 | -78.45886 | 16224 ft | 303 kts | 239° |
| 2026-05-04 15:21 | 44.17932 | -78.48407 | 15846 ft | 308 kts | 239° |
| 2026-05-04 15:21 | 44.15761 | -78.53498 | 15077 ft | 303 kts | 239° |
| 2026-05-04 15:22 | 44.14703 | -78.55978 | 14704 ft | 299 kts | 239° |
| 2026-05-04 15:22 | 44.13646 | -78.58453 | 14330 ft | 296 kts | 239° |
| 2026-05-04 15:22 | 44.11560 | -78.63330 | 13600 ft | 295 kts | 239° |
| 2026-05-04 15:23 | 44.10502 | -78.65801 | 13225 ft | 297 kts | 239° |
| 2026-05-04 15:23 | 44.09459 | -78.68234 | 12853 ft | 294 kts | 239° |
| 2026-05-04 15:23 | 44.08421 | -78.70653 | 12487 ft | 290 kts | 239° |
| 2026-05-04 15:23 | 44.07404 | -78.73022 | 12126 ft | 287 kts | 239° |
| 2026-05-04 15:24 | 44.05374 | -78.77744 | 11409 ft | 284 kts | 239° |
| 2026-05-04 15:24 | 44.03119 | -78.82286 | 10681 ft | 284 kts | 229° |
| 2026-05-04 15:25 | 44.01800 | -78.84277 | 10323 ft | 281 kts | 226° |
| 2026-05-04 15:25 | 44.00452 | -78.86221 | 9974 ft | 277 kts | 226° |
| 2026-05-04 15:25 | 43.99150 | -78.88110 | 9746 ft | 269 kts | 226° |
| 2026-05-04 15:26 | 43.96629 | -78.91849 | 9081 ft | 256 kts | 227° |
| 2026-05-04 15:26 | 43.95445 | -78.93623 | 8773 ft | 246 kts | 227° |
| 2026-05-04 15:26 | 43.93216 | -78.96966 | 8188 ft | 229 kts | 227° |
| 2026-05-04 15:27 | 43.92165 | -78.98541 | 7913 ft | 221 kts | 227° |
| 2026-05-04 15:27 | 43.90127 | -79.01588 | 7378 ft | 209 kts | 227° |
| 2026-05-04 15:28 | 43.88248 | -79.04394 | 7106 ft | 185 kts | 227° |
| 2026-05-04 15:28 | 43.87454 | -79.05736 | 7044 ft | 178 kts | 240° |
| 2026-05-04 15:28 | 43.87310 | -79.09021 | 7004 ft | 177 kts | 281° |
| 2026-05-04 15:29 | 43.87537 | -79.10699 | 7006 ft | 177 kts | 280° |
| 2026-05-04 15:30 | 43.88334 | -79.17094 | 6967 ft | 166 kts | 280° |
| 2026-05-04 15:30 | 43.88926 | -79.21806 | 6539 ft | 164 kts | 280° |
| 2026-05-04 15:31 | 43.89315 | -79.24918 | 6178 ft | 162 kts | 280° |
| 2026-05-04 15:31 | 43.89508 | -79.26466 | 5984 ft | 163 kts | 280° |
| 2026-05-04 15:32 | 43.90081 | -79.31069 | 5435 ft | 161 kts | 280° |
| 2026-05-04 15:32 | 43.89726 | -79.33997 | 5082 ft | 160 kts | 228° |
| 2026-05-04 15:33 | 43.88192 | -79.36141 | 4715 ft | 154 kts | 227° |
| 2026-05-04 15:34 | 43.86052 | -79.39278 | 4245 ft | 147 kts | 227° |
| 2026-05-04 15:34 | 43.85351 | -79.40299 | 4194 ft | 147 kts | 227° |
| 2026-05-04 15:34 | 43.83935 | -79.42356 | 4109 ft | 148 kts | 227° |
| 2026-05-04 15:35 | 43.82516 | -79.44432 | 4019 ft | 147 kts | 227° |
| 2026-05-04 15:35 | 43.81815 | -79.45459 | 3966 ft | 148 kts | 227° |
| 2026-05-04 15:35 | 43.81115 | -79.46483 | 3899 ft | 143 kts | 227° |
| 2026-05-04 15:36 | 43.79780 | -79.48431 | 3559 ft | 137 kts | 227° |
| 2026-05-04 15:36 | 43.79140 | -79.49365 | 3369 ft | 133 kts | 227° |
| 2026-05-04 15:36 | 43.78506 | -79.50288 | 3190 ft | 131 kts | 227° |
| 2026-05-04 15:37 | 43.77882 | -79.51198 | 3007 ft | 131 kts | 227° |
| 2026-05-04 15:37 | 43.77246 | -79.52125 | 2822 ft | 131 kts | 227° |
| 2026-05-04 15:37 | 43.76624 | -79.53030 | 2644 ft | 131 kts | 227° |
| 2026-05-04 15:37 | 43.75996 | -79.53946 | 2463 ft | 130 kts | 227° |
| 2026-05-04 15:38 | 43.75370 | -79.54856 | 2283 ft | 130 kts | 227° |
| 2026-05-04 15:38 | 43.74747 | -79.55763 | 2104 ft | 128 kts | 227° |
| 2026-05-04 15:38 | 43.74152 | -79.56628 | 1935 ft | 123 kts | 227° |
| 2026-05-04 15:38 | 43.73568 | -79.57471 | 1772 ft | 122 kts | 226° |
| 2026-05-04 15:39 | 43.72975 | -79.58322 | 1604 ft | 122 kts | 225° |
| 2026-05-04 15:39 | 43.72389 | -79.59158 | 1441 ft | 122 kts | 222° |
| 2026-05-04 15:39 | 43.71196 | -79.60820 | 1187 ft | 125 kts | 229° |
| 2026-05-04 15:40 | 43.70602 | -79.61704 | 1050 ft | 126 kts | 226° |
| 2026-05-04 15:40 | 43.70014 | -79.62600 | 803 ft | 125 kts | 226° |
| 2026-05-04 15:40 | 43.69447 | -79.63442 | 610 ft | 116 kts | 224° |
| 2026-05-04 15:40 | 43.68891 | -79.64233 | 543 ft | 104 kts | 225° |
| 2026-05-04 15:41 | 43.68592 | -79.64659 | 542 ft | 25 kts | 227° |
| 2026-05-04 15:41 | 43.68492 | -79.64770 | 542 ft | 12 kts | 181° |
| 2026-05-04 15:41 | 43.68469 | -79.64767 | 541 ft | 0 kts | 172° |
| 2026-05-04 15:42 | 43.68464 | -79.64765 | 541 ft | 2 kts | 163° |
| 2026-05-04 15:42 | 43.68439 | -79.64742 | 540 ft | 5 kts | 139° |
| 2026-05-04 15:42 | 43.68401 | -79.64691 | 538 ft | 9 kts | 135° |
| 2026-05-04 15:42 | 43.68349 | -79.64620 | 537 ft | 11 kts | 135° |
| 2026-05-04 15:43 | 43.68285 | -79.64534 | 536 ft | 13 kts | 137° |
| 2026-05-04 15:43 | 43.68211 | -79.64440 | 534 ft | 15 kts | 137° |
| 2026-05-04 15:43 | 43.68132 | -79.64332 | 533 ft | 16 kts | 135° |
| 2026-05-04 15:43 | 43.68041 | -79.64217 | 531 ft | 18 kts | 139° |
| 2026-05-04 15:44 | 43.67949 | -79.64095 | 530 ft | 17 kts | 135° |
| 2026-05-04 15:44 | 43.67900 | -79.63956 | 532 ft | 15 kts | 71° |
| 2026-05-04 15:44 | 43.67949 | -79.63841 | 533 ft | 12 kts | 83° |
| 2026-05-04 15:44 | 43.67956 | -79.63757 | 536 ft | 5 kts | 82° |
| 2026-05-04 15:45 | 43.67959 | -79.63736 | 537 ft | 0 kts | 82° |